createdAt,value
2023-10-15T00:04:13.827Z,10.95
2023-10-15T00:09:15.631Z,10.79
2023-10-15T00:14:17.093Z,10.84
2023-10-15T00:19:18.948Z,10.83
2023-10-15T00:24:21.537Z,10.79
2023-10-15T00:29:25.683Z,10.67
2023-10-15T00:34:27.678Z,10.73
2023-10-15T00:39:29.330Z,10.79
2023-10-15T00:44:31.767Z,10.73
2023-10-15T00:49:34.922Z,10.57
2023-10-15T00:54:40.366Z,10.63
2023-10-15T00:59:49.687Z,10.74
2023-10-15T01:04:52.618Z,10.65
2023-10-15T01:09:54.124Z,10.52
2023-10-15T01:14:55.607Z,10.53
2023-10-15T01:19:57.140Z,10.50
2023-10-15T01:25:10.318Z,10.52
2023-10-15T01:30:18.361Z,10.54
2023-10-15T01:35:20.375Z,10.48
2023-10-15T01:40:38.470Z,10.37
2023-10-15T01:45:42.005Z,10.33
2023-10-15T01:50:52.826Z,10.26
2023-10-15T01:56:01.418Z,10.24
2023-10-15T02:01:32.244Z,10.28
2023-10-15T02:06:36.685Z,10.52
2023-10-15T02:11:44.874Z,10.49
2023-10-15T02:16:50.490Z,10.39
2023-10-15T02:21:52.707Z,10.56
2023-10-15T02:26:54.223Z,10.46
2023-10-15T02:31:57.394Z,10.50
2023-10-15T02:37:04.561Z,10.50
2023-10-15T02:42:06.452Z,10.73
2023-10-15T02:47:09.037Z,10.67
2023-10-15T02:52:19.561Z,10.80
2023-10-15T02:57:22.549Z,10.67
2023-10-15T03:02:26.659Z,10.44
2023-10-15T03:07:31.416Z,10.52
2023-10-15T03:12:34.840Z,10.62
2023-10-15T03:17:41.838Z,10.62
2023-10-15T03:22:47.557Z,10.57
2023-10-15T03:27:49.190Z,10.63
2023-10-15T03:32:53.807Z,10.54
2023-10-15T03:38:00.551Z,10.50
2023-10-15T03:43:05.270Z,10.52
2023-10-15T03:48:10.689Z,10.68
2023-10-15T03:53:12.393Z,10.74
2023-10-15T03:58:14.938Z,10.83
2023-10-15T04:03:36.488Z,10.78
2023-10-15T04:08:40.846Z,10.68
2023-10-15T04:13:46.629Z,10.39
2023-10-15T04:18:48.146Z,10.31
2023-10-15T04:23:55.278Z,10.35
2023-10-15T04:28:56.900Z,10.36
2023-10-15T04:33:59.488Z,10.17
2023-10-15T04:39:13.051Z,10.28
2023-10-15T04:44:22.354Z,10.13
2023-10-15T04:49:24.208Z,10.09
2023-10-15T04:54:26.876Z,9.74
2023-10-15T04:59:28.462Z,10.11
2023-10-15T05:04:29.941Z,10.15
2023-10-15T05:09:32.273Z,10.24
2023-10-15T05:14:33.958Z,9.99
2023-10-15T05:19:35.502Z,10.05
2023-10-15T05:24:37.610Z,9.84
2023-10-15T05:29:40.275Z,10.38
2023-10-15T05:34:41.775Z,9.87
2023-10-15T05:39:43.333Z,9.48
2023-10-15T05:44:45.059Z,9.19
2023-10-15T05:49:46.614Z,9.39
2023-10-15T05:54:52.432Z,9.23
2023-10-15T05:59:55.838Z,9.34
2023-10-15T06:04:57.323Z,9.49
2023-10-15T06:09:58.801Z,9.51
2023-10-15T06:15:01.048Z,9.52
2023-10-15T06:20:15.825Z,9.58
2023-10-15T06:25:19.018Z,9.61
2023-10-15T06:30:24.473Z,9.34
2023-10-15T06:35:27.064Z,9.72
2023-10-15T06:40:29.637Z,9.57
2023-10-15T06:45:33.168Z,9.61
2023-10-15T06:50:35.258Z,9.73
2023-10-15T06:55:36.820Z,9.80
2023-10-15T07:00:38.636Z,9.69
2023-10-15T07:05:40.115Z,9.72
2023-10-15T07:10:42.631Z,9.87
2023-10-15T07:15:46.892Z,10.00
2023-10-15T07:20:48.459Z,10.15
2023-10-15T07:25:50.882Z,10.06
2023-10-15T07:30:52.503Z,10.15
2023-10-15T07:35:54.095Z,10.29
2023-10-15T07:41:00.188Z,10.20
2023-10-15T07:46:04.950Z,10.17
2023-10-15T07:51:06.831Z,9.91
2023-10-15T07:56:08.471Z,10.22
2023-10-15T08:01:12.784Z,10.53
2023-10-15T08:06:15.641Z,10.67
2023-10-15T08:11:17.244Z,10.61
2023-10-15T08:16:23.363Z,10.53
2023-10-15T08:21:25.074Z,10.54
2023-10-15T08:26:26.556Z,10.58
2023-10-15T08:31:28.089Z,10.70
2023-10-15T08:36:29.641Z,10.81
2023-10-15T08:41:31.487Z,11.00
2023-10-15T08:46:36.526Z,10.82
2023-10-15T08:51:38.668Z,11.00
2023-10-15T08:56:40.931Z,11.14
2023-10-15T09:01:44.071Z,10.93
2023-10-15T09:06:48.881Z,10.95
2023-10-15T09:11:51.915Z,11.10
2023-10-15T09:16:55.221Z,11.13
2023-10-15T09:21:57.950Z,11.02
2023-10-15T09:26:59.708Z,10.87
2023-10-15T09:32:05.948Z,10.82
2023-10-15T09:37:07.868Z,10.87
2023-10-15T09:42:11.065Z,10.90
2023-10-15T09:47:12.985Z,11.03
2023-10-15T09:52:15.521Z,11.09
2023-10-15T09:57:18.847Z,11.07
2023-10-15T10:02:37.004Z,11.07
2023-10-15T10:07:50.291Z,11.23
2023-10-15T10:13:28.815Z,11.19
2023-10-15T10:18:34.450Z,11.29
2023-10-15T10:23:48.346Z,11.17
2023-10-15T10:28:52.092Z,11.39
2023-10-15T10:33:55.571Z,11.26
2023-10-15T10:39:01.913Z,11.33
2023-10-15T10:44:25.246Z,11.33
2023-10-15T10:49:35.472Z,11.16
2023-10-15T10:54:37.409Z,11.18
2023-10-15T10:59:43.267Z,11.55
2023-10-15T11:04:45.161Z,11.41
2023-10-15T11:09:47.638Z,11.51
2023-10-15T11:14:49.307Z,11.81
2023-10-15T11:19:51.081Z,12.26
2023-10-15T11:24:52.633Z,11.96
2023-10-15T11:29:54.132Z,11.81
2023-10-15T11:34:56.043Z,12.33
2023-10-15T11:39:57.721Z,12.80
2023-10-15T11:44:59.560Z,12.49
2023-10-15T11:50:01.293Z,12.42
2023-10-15T11:55:04.020Z,12.26
2023-10-15T12:00:10.692Z,12.29
2023-10-15T12:05:12.350Z,12.53
2023-10-15T12:10:16.755Z,12.32
2023-10-15T12:15:19.129Z,12.32
2023-10-15T12:20:21.098Z,12.33
2023-10-15T12:25:23.330Z,12.21
2023-10-15T12:30:25.039Z,11.96
2023-10-15T12:35:28.712Z,11.55
2023-10-15T12:40:33.986Z,11.44
2023-10-15T12:45:36.150Z,11.63
2023-10-15T12:50:38.159Z,11.67
2023-10-15T12:55:39.858Z,12.01
2023-10-15T13:00:44.636Z,12.08
2023-10-15T13:05:46.687Z,12.10
2023-10-15T13:10:48.543Z,12.13
2023-10-15T13:15:50.109Z,11.75
2023-10-15T13:20:52.096Z,12.00
2023-10-15T13:25:53.920Z,12.23
2023-10-15T13:30:55.619Z,12.13
2023-10-15T13:35:58.807Z,12.18
2023-10-15T13:41:00.502Z,12.44
2023-10-15T13:46:02.798Z,12.48
2023-10-15T13:51:04.582Z,12.35
2023-10-15T13:56:06.193Z,12.48
2023-10-15T14:01:08.621Z,12.53
2023-10-15T14:06:10.211Z,12.56
2023-10-15T14:11:11.785Z,12.44
2023-10-15T14:16:14.338Z,12.39
2023-10-15T14:21:17.134Z,12.55
2023-10-15T14:26:18.756Z,12.43
2023-10-15T14:31:20.499Z,12.69
2023-10-15T14:36:26.458Z,12.70
2023-10-15T14:41:28.256Z,12.65
2023-10-15T14:46:29.981Z,12.66
2023-10-15T14:51:31.589Z,11.90
2023-10-15T14:56:33.774Z,11.79
2023-10-15T15:01:35.367Z,11.95
2023-10-15T15:06:37.459Z,11.80
2023-10-15T15:11:38.909Z,11.73
2023-10-15T15:16:40.617Z,11.74
2023-10-15T15:21:42.110Z,11.99
2023-10-15T15:26:44.162Z,12.01
2023-10-15T15:31:45.724Z,11.91
2023-10-15T15:36:47.310Z,11.78
2023-10-15T15:41:48.966Z,11.83
2023-10-15T15:46:51.371Z,11.83
2023-10-15T15:51:53.275Z,11.87
2023-10-15T15:56:54.934Z,11.89
2023-10-15T16:01:57.566Z,11.86
2023-10-15T16:06:59.198Z,11.75
2023-10-15T16:12:00.692Z,11.63
2023-10-15T16:17:02.327Z,11.60
2023-10-15T16:22:05.056Z,11.49
2023-10-15T16:27:11.022Z,11.42
2023-10-15T16:32:12.579Z,11.32
2023-10-15T16:37:14.100Z,11.28
2023-10-15T16:42:15.659Z,11.28
2023-10-15T16:47:17.161Z,11.32
2023-10-15T16:52:18.640Z,11.19
2023-10-15T16:57:20.148Z,11.11
2023-10-15T17:02:21.645Z,11.00
2023-10-15T17:07:27.199Z,10.77
2023-10-15T17:12:29.859Z,10.70
2023-10-15T17:17:31.564Z,10.71
2023-10-15T17:22:33.160Z,10.58
2023-10-15T17:27:34.803Z,10.52
2023-10-15T17:32:37.137Z,10.59
2023-10-15T17:37:38.859Z,10.70
2023-10-15T17:42:42.278Z,10.69
2023-10-15T17:47:43.973Z,10.65
2023-10-15T17:52:45.702Z,10.66
2023-10-15T17:57:47.263Z,10.63
2023-10-15T18:02:48.810Z,10.68
2023-10-15T18:07:50.726Z,10.71
2023-10-15T18:12:52.262Z,10.72
2023-10-15T18:17:53.802Z,10.70
2023-10-15T18:22:55.315Z,10.63
2023-10-15T18:27:56.808Z,10.39
2023-10-15T18:32:58.400Z,10.33
2023-10-15T18:37:59.933Z,10.21
2023-10-15T18:43:02.037Z,10.24
2023-10-15T18:48:03.694Z,10.20
2023-10-15T18:53:05.761Z,10.07
2023-10-15T18:58:08.080Z,10.03
2023-10-15T19:03:09.619Z,9.98
2023-10-15T19:08:11.548Z,9.89
2023-10-15T19:13:13.185Z,9.91
2023-10-15T19:18:15.982Z,9.74
2023-10-15T19:23:17.658Z,9.74
2023-10-15T19:28:20.372Z,9.74
2023-10-15T19:33:23.928Z,9.69
2023-10-15T19:38:27.164Z,9.71
2023-10-15T19:43:31.984Z,9.77
2023-10-15T19:48:33.879Z,9.74
2023-10-15T19:53:35.558Z,9.65
2023-10-15T19:58:41.999Z,9.61
2023-10-15T20:03:54.447Z,9.47
2023-10-15T20:09:01.019Z,9.48
2023-10-15T20:14:02.588Z,9.39
2023-10-15T20:19:04.115Z,9.72
2023-10-15T20:24:06.957Z,9.47
2023-10-15T20:29:08.557Z,9.45
2023-10-15T20:34:11.527Z,9.55
2023-10-15T20:39:19.791Z,9.54
2023-10-15T20:44:21.306Z,9.65
2023-10-15T20:49:22.891Z,9.57
2023-10-15T20:54:24.683Z,9.46
2023-10-15T20:59:26.365Z,9.53
2023-10-15T21:04:28.351Z,9.46
2023-10-15T21:09:29.834Z,9.27
2023-10-15T21:14:31.948Z,9.29
2023-10-15T21:19:33.510Z,9.45
2023-10-15T21:24:36.310Z,9.24
2023-10-15T21:29:37.914Z,9.26
2023-10-15T21:34:39.407Z,9.27
2023-10-15T21:39:40.906Z,9.27
2023-10-15T21:44:42.459Z,9.07
2023-10-15T21:49:43.912Z,9.08
2023-10-15T21:54:45.463Z,8.90
2023-10-15T21:59:48.353Z,8.86
2023-10-15T22:04:49.936Z,8.85
2023-10-15T22:09:51.535Z,8.82
2023-10-15T22:14:53.288Z,8.71
2023-10-15T22:19:55.283Z,8.79
2023-10-15T22:24:56.756Z,8.78
2023-10-15T22:30:05.769Z,8.72
2023-10-15T22:35:07.450Z,8.94
2023-10-15T22:40:15.606Z,8.83
2023-10-15T22:45:18.765Z,8.94
2023-10-15T22:50:20.454Z,8.83
2023-10-15T22:55:22.234Z,8.69
2023-10-15T23:00:24.348Z,8.72
2023-10-15T23:05:26.354Z,8.71
2023-10-15T23:10:29.326Z,8.58
2023-10-15T23:15:30.818Z,8.74
2023-10-15T23:20:35.726Z,8.60
2023-10-15T23:25:37.350Z,8.56
2023-10-15T23:30:42.451Z,8.48
2023-10-15T23:35:46.771Z,8.49
2023-10-15T23:40:48.363Z,8.40
2023-10-15T23:45:56.032Z,8.40
2023-10-15T23:50:58.449Z,8.30
2023-10-15T23:56:26.806Z,8.33
